createdAt,value
2023-04-22T00:00:06.580Z,12.93
2023-04-22T00:02:33.936Z,11.05
2023-04-22T00:05:01.480Z,10.70
2023-04-22T00:07:28.471Z,11.18
2023-04-22T00:09:55.316Z,11.10
2023-04-22T00:12:22.544Z,12.43
2023-04-22T00:14:49.394Z,11.07
2023-04-22T00:17:16.296Z,9.88
2023-04-22T00:19:43.837Z,12.27
2023-04-22T00:22:11.189Z,11.32
2023-04-22T00:24:38.043Z,10.38
2023-04-22T00:27:04.807Z,10.60
2023-04-22T00:29:31.545Z,13.70
2023-04-22T00:31:58.400Z,11.70
2023-04-22T00:34:25.324Z,12.20
2023-04-22T00:36:52.146Z,11.25
2023-04-22T00:39:18.925Z,10.32
2023-04-22T00:41:47.084Z,9.93
2023-04-22T00:44:13.894Z,10.43
2023-04-22T00:46:40.713Z,10.65
2023-04-22T00:49:08.610Z,12.23
2023-04-22T00:51:36.299Z,10.68
2023-04-22T00:54:04.659Z,10.82
2023-04-22T00:56:33.607Z,12.73
2023-04-22T00:59:00.477Z,10.40
2023-04-22T01:01:27.422Z,13.55
2023-04-22T01:03:54.864Z,13.10
2023-04-22T01:06:24.061Z,9.85
2023-04-22T01:08:51.302Z,9.90
2023-04-22T01:11:18.555Z,11.10
2023-04-22T01:13:45.375Z,9.32
2023-04-22T01:16:13.152Z,9.60
2023-04-22T01:18:39.935Z,11.02
2023-04-22T01:21:07.287Z,10.55
2023-04-22T01:23:34.264Z,10.50
2023-04-22T01:26:01.187Z,11.02
2023-04-22T01:28:28.708Z,10.85
2023-04-22T01:30:56.033Z,13.88
2023-04-22T01:33:22.901Z,9.85
2023-04-22T01:35:49.732Z,11.05
2023-04-22T01:38:16.529Z,10.00
2023-04-22T01:40:43.256Z,10.90
2023-04-22T01:43:09.987Z,11.15
2023-04-22T01:45:37.056Z,10.40
2023-04-22T01:48:04.901Z,11.10
2023-04-22T01:50:31.825Z,12.10
2023-04-22T01:52:59.092Z,10.07
2023-04-22T01:55:25.896Z,11.68
2023-04-22T01:57:52.694Z,10.57
2023-04-22T02:00:19.523Z,12.45
2023-04-22T02:02:46.667Z,12.88
2023-04-22T02:05:13.692Z,12.27
2023-04-22T02:07:40.564Z,11.05
2023-04-22T02:10:07.817Z,13.43
2023-04-22T02:12:34.715Z,15.82
2023-04-22T02:15:01.581Z,13.43
2023-04-22T02:17:28.726Z,12.85
2023-04-22T02:19:55.625Z,12.02
2023-04-22T02:22:23.899Z,10.82
2023-04-22T02:24:50.722Z,12.27
2023-04-22T02:27:17.636Z,11.73
2023-04-22T02:29:44.327Z,11.40
2023-04-22T02:32:11.138Z,11.65
2023-04-22T02:34:38.119Z,11.30
2023-04-22T02:37:05.571Z,12.27
2023-04-22T02:39:32.386Z,11.10
2023-04-22T02:41:59.259Z,15.57
2023-04-22T02:44:26.106Z,12.35
2023-04-22T02:46:53.054Z,10.98
2023-04-22T02:49:20.053Z,12.43
2023-04-22T02:51:46.862Z,11.63
2023-04-22T02:54:13.662Z,10.95
2023-04-22T02:56:40.376Z,11.80
2023-04-22T02:59:07.259Z,13.13
2023-04-22T03:01:34.125Z,11.73
2023-04-22T03:04:01.101Z,11.68
2023-04-22T03:06:28.035Z,10.50
2023-04-22T03:08:54.794Z,12.50
2023-04-22T03:11:21.574Z,9.30
2023-04-22T03:13:48.371Z,11.15
2023-04-22T03:16:17.071Z,10.93
2023-04-22T03:18:43.846Z,11.27
2023-04-22T03:21:10.620Z,10.15
2023-04-22T03:23:37.312Z,10.98
2023-04-22T03:26:04.110Z,10.20
2023-04-22T03:28:30.821Z,12.48
2023-04-22T03:30:57.601Z,11.27
2023-04-22T03:33:24.431Z,10.85
2023-04-22T03:35:51.193Z,13.18
2023-04-22T03:38:18.187Z,9.93
2023-04-22T03:40:44.943Z,11.25
2023-04-22T03:43:11.898Z,11.48
2023-04-22T03:45:38.922Z,12.15
2023-04-22T03:48:05.908Z,11.40
2023-04-22T03:50:33.733Z,13.15
2023-04-22T03:53:00.618Z,11.45
2023-04-22T03:55:27.456Z,10.68
2023-04-22T03:57:54.320Z,11.13
2023-04-22T04:00:21.315Z,11.40
2023-04-22T04:02:48.310Z,12.60
2023-04-22T04:05:15.422Z,12.63
2023-04-22T04:07:42.657Z,10.82
2023-04-22T04:10:10.460Z,11.38
2023-04-22T04:12:37.396Z,9.90
2023-04-22T04:15:04.534Z,10.73
2023-04-22T04:17:31.444Z,11.60
2023-04-22T04:19:58.251Z,10.45
2023-04-22T04:22:25.635Z,10.80
2023-04-22T04:24:52.443Z,12.68
2023-04-22T04:27:19.279Z,12.27
2023-04-22T04:29:46.084Z,12.55
2023-04-22T04:32:12.830Z,10.70
2023-04-22T04:34:39.682Z,10.75
2023-04-22T04:37:06.482Z,11.23
2023-04-22T04:39:33.671Z,11.50
2023-04-22T04:42:00.520Z,10.43
2023-04-22T04:44:27.490Z,12.57
2023-04-22T04:46:57.866Z,11.13
2023-04-22T04:51:51.339Z,12.68
2023-04-22T04:54:18.201Z,11.23
2023-04-22T04:56:45.070Z,11.45
2023-04-22T04:59:11.878Z,10.48
2023-04-22T05:01:39.091Z,11.63
2023-04-22T05:04:06.465Z,12.68
2023-04-22T05:06:33.690Z,10.95
2023-04-22T05:09:00.769Z,10.23
2023-04-22T05:11:27.531Z,11.75
2023-04-22T05:13:54.337Z,12.45
2023-04-22T05:16:21.221Z,9.88
2023-04-22T05:18:48.214Z,11.80
2023-04-22T05:21:16.086Z,11.15
2023-04-22T05:23:42.845Z,10.43
2023-04-22T05:26:09.585Z,11.65
2023-04-22T05:28:36.414Z,12.57
2023-04-22T05:31:03.214Z,13.30
2023-04-22T05:33:29.987Z,12.02
2023-04-22T05:35:56.722Z,11.00
2023-04-22T05:38:23.507Z,10.57
2023-04-22T05:40:50.210Z,11.90
2023-04-22T05:43:17.055Z,13.95
2023-04-22T05:45:43.898Z,11.10
2023-04-22T05:48:10.800Z,12.38
2023-04-22T05:50:37.637Z,11.77
2023-04-22T05:53:04.445Z,11.98
2023-04-22T05:55:31.455Z,12.15
2023-04-22T05:57:58.265Z,14.23
2023-04-22T06:00:25.177Z,13.18
2023-04-22T06:02:52.063Z,13.10
2023-04-22T06:05:19.184Z,13.80
2023-04-22T06:07:46.207Z,14.93
2023-04-22T06:10:13.037Z,12.75
2023-04-22T06:12:39.781Z,15.65
2023-04-22T06:15:07.085Z,13.88
2023-04-22T06:17:33.938Z,14.52
2023-04-22T06:20:00.678Z,15.35
2023-04-22T06:22:27.433Z,15.75
2023-04-22T06:24:54.201Z,15.40
2023-04-22T06:27:20.989Z,16.52
2023-04-22T06:29:47.772Z,17.70
2023-04-22T06:32:14.557Z,18.60
2023-04-22T06:34:41.419Z,19.90
2023-04-22T06:37:08.629Z,22.13
2023-04-22T06:39:35.373Z,23.90
2023-04-22T06:42:02.228Z,21.77
2023-04-22T06:44:29.434Z,23.40
2023-04-22T06:46:57.915Z,25.13
2023-04-22T06:49:25.131Z,26.42
2023-04-22T06:51:51.893Z,29.15
2023-04-22T06:54:18.673Z,27.67
2023-04-22T06:56:45.489Z,26.23
2023-04-22T06:59:12.265Z,26.50
2023-04-22T07:01:38.996Z,26.83
2023-04-22T07:04:05.869Z,25.42
2023-04-22T07:06:32.989Z,28.65
2023-04-22T07:09:00.042Z,25.38
2023-04-22T07:11:27.711Z,28.30
2023-04-22T07:13:54.460Z,28.60
2023-04-22T07:16:21.322Z,28.23
2023-04-22T07:18:48.161Z,25.50
2023-04-22T07:21:14.950Z,24.73
2023-04-22T07:23:41.660Z,27.02
2023-04-22T07:26:08.450Z,28.60
2023-04-22T07:28:35.308Z,27.85
2023-04-22T07:31:02.657Z,25.63
2023-04-22T07:33:29.387Z,26.20
2023-04-22T07:35:56.296Z,24.67
2023-04-22T07:38:23.070Z,23.48
2023-04-22T07:40:49.896Z,23.25
2023-04-22T07:43:17.531Z,24.92
2023-04-22T07:45:44.615Z,24.48
2023-04-22T07:48:11.420Z,24.35
2023-04-22T07:50:38.925Z,24.52
2023-04-22T07:53:06.144Z,25.95
2023-04-22T07:55:33.233Z,25.13
2023-04-22T07:58:06.486Z,23.20
2023-04-22T08:00:36.357Z,20.15
2023-04-22T08:03:04.001Z,23.38
2023-04-22T08:05:30.885Z,19.75
2023-04-22T08:07:57.643Z,18.20
2023-04-22T08:10:24.523Z,17.95
2023-04-22T08:12:51.371Z,19.05
2023-04-22T08:15:18.180Z,19.17
2023-04-22T08:17:45.009Z,18.58
2023-04-22T08:20:12.320Z,16.33
2023-04-22T08:22:39.156Z,17.40
2023-04-22T08:25:06.833Z,18.15
2023-04-22T08:27:33.639Z,16.60
2023-04-22T08:30:00.525Z,16.95
2023-04-22T08:32:27.540Z,15.75
2023-04-22T08:35:03.552Z,14.95
2023-04-22T08:37:31.762Z,16.30
2023-04-22T08:39:58.601Z,14.73
2023-04-22T08:42:26.868Z,15.90
2023-04-22T08:44:54.864Z,16.52
2023-04-22T08:47:22.101Z,17.98
2023-04-22T08:49:51.660Z,16.15
2023-04-22T08:52:18.883Z,17.33
2023-04-22T08:54:46.060Z,15.10
2023-04-22T08:57:14.946Z,14.80
2023-04-22T08:59:42.475Z,16.52
2023-04-22T09:02:16.694Z,17.77
2023-04-22T09:04:46.832Z,15.32
2023-04-22T09:07:20.981Z,16.40
2023-04-22T09:09:48.623Z,15.18
2023-04-22T09:12:15.440Z,16.70
2023-04-22T09:14:43.093Z,16.10
2023-04-22T09:17:09.779Z,15.35
2023-04-22T09:19:36.643Z,13.82
2023-04-22T09:22:03.450Z,16.25
2023-04-22T09:24:30.319Z,17.00
2023-04-22T09:26:57.377Z,15.30
2023-04-22T09:29:30.621Z,15.50
2023-04-22T09:31:57.387Z,16.83
2023-04-22T09:34:24.209Z,15.55
2023-04-22T09:36:52.073Z,15.45
2023-04-22T09:39:18.800Z,17.92
2023-04-22T09:41:45.671Z,16.65
2023-04-22T09:44:18.026Z,14.50
2023-04-22T09:46:45.427Z,14.93
2023-04-22T09:49:15.849Z,16.23
2023-04-22T09:51:42.650Z,14.80
2023-04-22T09:54:11.538Z,18.00
2023-04-22T09:56:52.633Z,13.52
2023-04-22T09:59:28.338Z,15.18
2023-04-22T10:02:04.500Z,14.75
2023-04-22T10:04:31.452Z,13.20
2023-04-22T10:06:58.478Z,12.70
2023-04-22T10:09:25.954Z,13.23
2023-04-22T10:11:55.552Z,15.48
2023-04-22T10:14:23.116Z,16.27
2023-04-22T10:16:53.424Z,13.85
2023-04-22T10:22:02.560Z,17.48
2023-04-22T10:24:34.281Z,16.55
2023-04-22T10:27:06.594Z,16.55
2023-04-22T10:29:39.157Z,15.10
2023-04-22T10:32:23.789Z,16.42
2023-04-22T10:35:06.217Z,14.77
2023-04-22T10:37:33.968Z,14.63
2023-04-22T10:40:26.944Z,15.75
2023-04-22T10:42:55.909Z,16.45
2023-04-22T10:45:25.553Z,15.43
2023-04-22T10:47:52.470Z,18.35
2023-04-22T10:50:26.012Z,18.63
2023-04-22T10:52:56.918Z,16.33
2023-04-22T10:55:25.672Z,14.73
2023-04-22T10:57:53.807Z,16.92
2023-04-22T11:00:25.285Z,15.48
2023-04-22T11:02:55.540Z,16.83
2023-04-22T11:05:27.651Z,18.05
2023-04-22T11:08:01.399Z,16.70
2023-04-22T11:10:44.385Z,15.18
2023-04-22T11:13:16.690Z,15.18
2023-04-22T11:15:46.628Z,15.52
2023-04-22T11:18:25.054Z,15.23
2023-04-22T11:20:53.629Z,14.60
2023-04-22T11:23:28.207Z,14.43
2023-04-22T11:26:01.464Z,12.82
2023-04-22T11:28:28.554Z,13.43
2023-04-22T11:31:11.837Z,11.40
2023-04-22T11:33:39.204Z,13.90
2023-04-22T11:36:10.646Z,15.60
2023-04-22T11:38:37.476Z,14.98
2023-04-22T11:41:05.128Z,20.55
2023-04-22T11:43:32.058Z,15.57
2023-04-22T11:45:58.929Z,17.67
2023-04-22T11:48:25.852Z,13.98
2023-04-22T11:51:11.545Z,13.73
2023-04-22T11:53:40.132Z,15.85
2023-04-22T11:56:07.045Z,16.23
2023-04-22T11:58:33.912Z,15.43
2023-04-22T12:01:00.748Z,15.07
2023-04-22T12:03:29.758Z,14.45
2023-04-22T12:05:58.834Z,13.50
2023-04-22T12:08:37.115Z,14.95
2023-04-22T12:11:06.976Z,14.20
2023-04-22T12:13:46.310Z,15.95
2023-04-22T12:16:15.151Z,13.98
2023-04-22T12:18:49.128Z,15.80
2023-04-22T12:21:19.407Z,13.50
2023-04-22T12:26:13.939Z,13.02
2023-04-22T12:28:42.140Z,14.43
2023-04-22T12:31:09.705Z,16.13
2023-04-22T12:33:37.830Z,14.32
2023-04-22T12:36:05.790Z,15.32
2023-04-22T12:38:33.190Z,15.57
2023-04-22T12:41:00.039Z,17.80
2023-04-22T12:43:27.327Z,14.95
2023-04-22T12:45:54.105Z,17.98
2023-04-22T12:48:21.039Z,16.27
2023-04-22T12:50:47.799Z,17.83
2023-04-22T12:53:15.328Z,18.02
2023-04-22T12:55:43.367Z,17.20
2023-04-22T12:58:12.239Z,16.80
2023-04-22T13:00:39.017Z,15.95
2023-04-22T13:03:06.030Z,18.30
2023-04-22T13:05:32.955Z,16.88
2023-04-22T13:08:07.004Z,17.60
2023-04-22T13:10:35.632Z,18.90
2023-04-22T13:13:16.988Z,20.33
2023-04-22T13:15:45.607Z,18.40
2023-04-22T13:18:12.484Z,19.98
2023-04-22T13:20:40.790Z,19.88
2023-04-22T13:23:08.169Z,21.25
2023-04-22T13:25:35.080Z,20.95
2023-04-22T13:28:02.018Z,20.10
2023-04-22T13:30:28.884Z,18.40
2023-04-22T13:32:55.584Z,18.13
2023-04-22T13:35:22.363Z,18.83
2023-04-22T13:37:49.106Z,18.65
2023-04-22T13:40:16.231Z,18.65
2023-04-22T13:42:44.464Z,17.85
2023-04-22T13:45:11.421Z,19.02
2023-04-22T13:47:38.249Z,19.65
2023-04-22T13:50:06.355Z,18.73
2023-04-22T13:52:33.957Z,17.83
2023-04-22T13:55:00.973Z,20.15
2023-04-22T13:57:27.750Z,19.25
2023-04-22T13:59:54.628Z,18.73
2023-04-22T14:02:21.522Z,20.05
2023-04-22T14:04:48.394Z,19.45
2023-04-22T14:07:15.249Z,19.23
2023-04-22T14:09:42.424Z,20.52
2023-04-22T14:12:11.114Z,20.13
2023-04-22T14:14:37.929Z,21.67
2023-04-22T14:17:04.915Z,20.83
2023-04-22T14:19:31.819Z,18.80
2023-04-22T14:21:58.683Z,18.35
2023-04-22T14:24:26.062Z,20.02
2023-04-22T14:26:53.981Z,19.77
2023-04-22T14:29:21.018Z,19.23
2023-04-22T14:31:49.793Z,22.02
2023-04-22T14:34:17.078Z,21.98
2023-04-22T14:36:44.189Z,20.75
2023-04-22T14:39:10.961Z,20.35
2023-04-22T14:41:37.805Z,20.90
2023-04-22T14:44:04.633Z,21.02
2023-04-22T14:46:31.627Z,20.48
2023-04-22T14:48:58.388Z,21.33
2023-04-22T14:51:25.454Z,20.92
2023-04-22T14:53:52.209Z,21.60
2023-04-22T14:56:19.407Z,18.38
2023-04-22T14:58:46.750Z,22.35
2023-04-22T15:01:13.593Z,22.20
2023-04-22T15:03:40.808Z,22.23
2023-04-22T15:06:07.767Z,23.08
2023-04-22T15:08:34.524Z,21.50
2023-04-22T15:11:01.242Z,21.52
2023-04-22T15:13:28.094Z,21.85
2023-04-22T15:15:55.002Z,23.55
2023-04-22T15:18:21.817Z,20.67
2023-04-22T15:20:48.519Z,22.13
2023-04-22T15:23:15.308Z,24.63
2023-04-22T15:25:42.484Z,25.58
2023-04-22T15:28:09.269Z,23.95
2023-04-22T15:30:36.063Z,25.10
2023-04-22T15:33:04.926Z,25.65
2023-04-22T15:35:31.838Z,23.17
2023-04-22T15:37:59.035Z,24.05
2023-04-22T15:40:25.944Z,26.75
2023-04-22T15:42:52.810Z,26.42
2023-04-22T15:45:20.066Z,25.08
2023-04-22T15:47:47.083Z,26.73
2023-04-22T15:50:14.012Z,31.45
2023-04-22T15:52:40.942Z,30.92
2023-04-22T15:55:08.269Z,31.08
2023-04-22T15:57:35.746Z,29.63
2023-04-22T16:00:12.963Z,29.77
2023-04-22T16:02:41.218Z,33.38
2023-04-22T16:05:08.555Z,35.15
2023-04-22T16:07:35.487Z,30.50
2023-04-22T16:10:02.550Z,30.92
2023-04-22T16:12:29.856Z,29.70
2023-04-22T16:14:57.687Z,28.55
2023-04-22T16:17:25.120Z,26.60
2023-04-22T16:19:51.994Z,30.60
2023-04-22T16:22:18.748Z,27.05
2023-04-22T16:24:45.484Z,26.13
2023-04-22T16:27:16.269Z,31.27
2023-04-22T16:29:43.715Z,23.63
2023-04-22T16:32:10.931Z,26.67
2023-04-22T16:34:38.412Z,27.52
2023-04-22T16:37:05.931Z,29.80
2023-04-22T16:39:33.007Z,26.58
2023-04-22T16:42:00.072Z,27.92
2023-04-22T16:44:26.892Z,24.42
2023-04-22T16:46:53.619Z,25.02
2023-04-22T16:49:21.004Z,28.92
2023-04-22T16:51:48.425Z,26.63
2023-04-22T16:54:15.279Z,30.55
2023-04-22T16:56:42.050Z,27.98
2023-04-22T16:59:08.794Z,26.75
2023-04-22T17:01:36.205Z,27.05
2023-04-22T17:04:03.197Z,23.38
2023-04-22T17:06:30.021Z,23.67
2023-04-22T17:08:56.726Z,25.67
2023-04-22T17:11:24.105Z,25.52
2023-04-22T17:13:51.487Z,27.88
2023-04-22T17:16:18.667Z,24.25
2023-04-22T17:18:46.999Z,24.05
2023-04-22T17:21:13.925Z,29.73
2023-04-22T17:23:40.853Z,24.55
2023-04-22T17:26:07.665Z,28.35
2023-04-22T17:28:34.649Z,27.02
2023-04-22T17:31:01.456Z,25.85
2023-04-22T17:33:29.160Z,26.95
2023-04-22T17:35:56.291Z,27.05
2023-04-22T17:38:23.145Z,29.65
2023-04-22T17:40:49.930Z,27.02
2023-04-22T17:43:16.678Z,26.20
2023-04-22T17:45:44.097Z,30.33
2023-04-22T17:48:10.837Z,29.25
2023-04-22T17:50:37.626Z,29.55
2023-04-22T17:53:04.473Z,29.35
2023-04-22T17:55:35.001Z,33.00
2023-04-22T17:58:05.609Z,32.13
2023-04-22T18:00:33.593Z,30.48
2023-04-22T18:03:00.889Z,29.33
2023-04-22T18:05:27.918Z,31.10
2023-04-22T18:08:12.582Z,33.25
2023-04-22T18:10:40.315Z,30.30
2023-04-22T18:13:07.079Z,31.13
2023-04-22T18:15:33.947Z,31.55
2023-04-22T18:18:01.315Z,30.08
2023-04-22T18:20:28.170Z,31.25
2023-04-22T18:22:56.351Z,29.17
2023-04-22T18:25:24.166Z,31.27
2023-04-22T18:27:54.866Z,28.73
2023-04-22T18:30:25.194Z,33.83
2023-04-22T18:35:19.960Z,34.70
2023-04-22T18:37:46.819Z,34.05
2023-04-22T18:40:14.006Z,34.63
2023-04-22T18:42:44.482Z,36.63
2023-04-22T18:45:12.038Z,33.05
2023-04-22T18:47:38.975Z,34.95
2023-04-22T18:50:06.186Z,32.40
2023-04-22T18:52:34.054Z,35.47
2023-04-22T18:55:00.877Z,36.13
2023-04-22T18:57:27.732Z,33.70
2023-04-22T18:59:55.016Z,35.60
2023-04-22T19:02:21.968Z,33.10
2023-04-22T19:04:48.974Z,35.92
2023-04-22T19:07:15.724Z,35.25
2023-04-22T19:09:42.393Z,37.33
2023-04-22T19:12:14.562Z,35.90
2023-04-22T19:14:42.159Z,36.70
2023-04-22T19:17:09.206Z,39.95
2023-04-22T19:19:36.007Z,40.72
2023-04-22T19:22:02.720Z,36.92
2023-04-22T19:24:33.345Z,40.63
2023-04-22T19:27:02.467Z,37.65
2023-04-22T19:29:29.562Z,35.15
2023-04-22T19:31:57.318Z,40.38
2023-04-22T19:34:24.180Z,40.47
2023-04-22T19:36:51.285Z,34.90
2023-04-22T19:39:18.201Z,33.83
2023-04-22T19:41:45.010Z,40.38
2023-04-22T19:44:11.790Z,36.72
2023-04-22T19:46:38.556Z,39.05
2023-04-22T19:49:06.629Z,40.47
2023-04-22T19:51:33.995Z,36.35
2023-04-22T19:54:01.785Z,37.97
2023-04-22T19:56:28.638Z,34.50
2023-04-22T19:58:56.062Z,37.38
2023-04-22T20:01:23.031Z,33.30
2023-04-22T20:03:50.746Z,39.03
2023-04-22T20:06:18.932Z,35.53
2023-04-22T20:08:47.734Z,34.60
2023-04-22T20:11:14.711Z,35.20
2023-04-22T20:13:42.328Z,36.80
2023-04-22T20:16:09.630Z,36.90
2023-04-22T20:18:36.630Z,37.05
2023-04-22T20:21:04.529Z,34.38
2023-04-22T20:23:33.392Z,34.80
2023-04-22T20:26:00.736Z,37.38
2023-04-22T20:28:48.176Z,36.67
2023-04-22T20:31:18.437Z,37.53
2023-04-22T20:36:15.224Z,37.15
2023-04-22T20:38:43.207Z,38.65
2023-04-22T20:41:10.247Z,40.58
2023-04-22T20:43:37.115Z,36.58
2023-04-22T20:46:04.126Z,38.63
2023-04-22T20:48:31.227Z,35.53
2023-04-22T20:50:57.936Z,40.28
2023-04-22T20:53:27.029Z,39.45
2023-04-22T20:55:54.112Z,39.58
2023-04-22T20:58:20.929Z,36.97
2023-04-22T21:00:47.721Z,38.45
2023-04-22T21:03:16.801Z,39.03
2023-04-22T21:05:45.903Z,35.72
2023-04-22T21:08:24.426Z,38.60
2023-04-22T21:10:53.291Z,36.75
2023-04-22T21:13:20.862Z,35.83
2023-04-22T21:15:59.169Z,37.15
2023-04-22T21:18:28.839Z,35.20
2023-04-22T21:20:56.593Z,34.15
2023-04-22T21:23:24.352Z,33.63
2023-04-22T21:25:53.079Z,42.70
2023-04-22T21:28:21.843Z,38.67
2023-04-22T21:30:48.745Z,38.60
2023-04-22T21:33:15.578Z,38.55
2023-04-22T21:35:42.429Z,42.95
2023-04-22T21:38:09.619Z,41.92
2023-04-22T21:40:36.478Z,38.00
2023-04-22T21:43:04.699Z,38.42
2023-04-22T21:45:31.445Z,37.47
2023-04-22T21:48:01.263Z,38.67
2023-04-22T21:50:30.128Z,35.22
2023-04-22T21:52:57.149Z,41.00
2023-04-22T21:55:23.924Z,37.78
2023-04-22T21:57:50.999Z,41.42
2023-04-22T22:00:19.007Z,40.47
2023-04-22T22:02:47.386Z,46.05
2023-04-22T22:05:17.334Z,47.08
2023-04-22T22:07:44.822Z,44.20
2023-04-22T22:10:14.607Z,45.00
2023-04-22T22:12:41.662Z,51.17
2023-04-22T22:15:09.168Z,49.97
2023-04-22T22:17:38.027Z,49.90
2023-04-22T22:20:10.909Z,44.17
2023-04-22T22:22:41.690Z,46.47
2023-04-22T22:25:11.020Z,49.08
2023-04-22T22:27:40.841Z,47.58
2023-04-22T22:30:08.672Z,51.88
2023-04-22T22:32:36.353Z,56.08
2023-04-22T22:35:03.405Z,50.35
2023-04-22T22:37:30.310Z,50.47
2023-04-22T22:39:57.020Z,54.60
2023-04-22T22:42:23.784Z,57.13
2023-04-22T22:44:50.585Z,52.80
2023-04-22T22:47:17.693Z,51.17
2023-04-22T22:49:45.561Z,54.15
2023-04-22T22:52:13.160Z,54.03
2023-04-22T22:54:40.735Z,54.05
2023-04-22T22:57:08.173Z,52.35
2023-04-22T22:59:37.328Z,48.08
2023-04-22T23:02:04.303Z,52.63
2023-04-22T23:04:31.397Z,52.58
2023-04-22T23:06:58.484Z,51.60
2023-04-22T23:09:25.200Z,52.15
2023-04-22T23:11:52.081Z,50.60
2023-04-22T23:14:20.095Z,47.28
2023-04-22T23:16:47.795Z,54.58
2023-04-22T23:19:15.857Z,52.10
2023-04-22T23:21:43.750Z,48.70
2023-04-22T23:24:12.047Z,48.38
2023-04-22T23:26:38.992Z,47.35
2023-04-22T23:29:06.606Z,47.65
2023-04-22T23:31:34.750Z,46.88
2023-04-22T23:34:03.343Z,48.60
2023-04-22T23:36:36.408Z,52.33
2023-04-22T23:39:05.666Z,47.25
2023-04-22T23:41:33.719Z,50.72
2023-04-22T23:44:00.579Z,53.60
2023-04-22T23:46:27.656Z,51.63
2023-04-22T23:48:54.730Z,52.42
2023-04-22T23:51:21.468Z,52.17
2023-04-22T23:53:48.491Z,55.70
2023-04-22T23:56:20.024Z,53.22
2023-04-22T23:58:47.574Z,51.60
